KTLH/TLH METAR and TAF weather

Enter ICAO airport designator
Station Type Date Time Source
KTLH METAR 2021/03/08 15:53 UTC NOAA

KTLH 081553Z VRB04KT 10SM CLR 16/M03 A3056 RMK AO2 SLP348 T01611028


Station Type Date Time Source
KTLH Decoded METAR 2021/03/08 15:53 UTC NOAA

TALLAHASSEE REGIONAL AIRPORT , FL, United States (KTLH) 30-24N 84-21W 16M
Mar 08, 2021 - 10:53 AM EST / 2021.03.08 1553 UTC
Wind: Variable at 5 MPH (4 KT):0
Visibility: 10 mile(s):0
Sky conditions: clear
Temperature: 61.0 F (16.1 C)
Dew Point: 27.0 F (-2.8 C)
Relative Humidity: 27%
Pressure (altimeter): 30.56 in. Hg (1034 hPa)
ob: KTLH 081553Z VRB04KT 10SM CLR 16/M03 A3056 RMK AO2 SLP348 T01611028
cycle: 16

Station Type Date Time Source
KTLH TAF 2021/03/08 12:22 UTC NOAA

TAF KTLH 081120Z 0812/0912 00000KT P6SM SKC
FM081400 07006KT P6SM SKC
FM090000 00000KT P6SM SKC

Example: see airport list